Curtis Field Brady US
ICAO: KBBD
IATA: BBD
Category: Medium
Scheduled Services: No

Elevation: 1827 ft
TransAlt. 18000 ft.

Airport Communications:
AWOS 3:118.375
HOUSTON CNTR:132.35
CTAF/UNICOM:122.8

KBBD Zoom In..

If you have problems with the map follow the link
https://www.worldairports.se/pages/airport.php?
ICAO=KBBD

Runways:

(A) RW 08 length 3520 ft width 110 ft
---- / hdg 86

(B) RW 17 length 4605 ft width 75 ft
---- / hdg 173

(C) RW 26 length 3520 ft width 110 ft
---- / hdg 266

(D) RW 35 length 4605 ft width 75 ft
---- / hdg 353

Location; KBBD
Day. 18 / Time. 07.35 Zulu
* Altimeter: 30.37
* Temperature: 08° c. 46.4°f.
* Wind from: 030° Speed 07 kn.
Dewpoint: 07° c.
Visibility: 6 Statute Miles.
Clouds: Overcast 400 ft.
Conditions: Mist.

KBBD 180735Z AUTO 03007KT 6SM BR OVC004 08/07 A3037 RMK AO2


Wind From 030°
Speed 07 kn.

 
 
jpsmedia.com for Web Design worldairports.se 2018   terms of use